createdAt,value
2019-03-15T00:01:34.865Z,53.20
2019-03-15T00:04:03.393Z,53.80
2019-03-15T00:06:31.939Z,54.00
2019-03-15T00:09:00.541Z,53.60
2019-03-15T00:11:29.411Z,53.50
2019-03-15T00:13:58.089Z,53.10
2019-03-15T00:16:26.640Z,53.40
2019-03-15T00:18:55.192Z,53.60
2019-03-15T00:21:23.794Z,54.60
2019-03-15T00:23:52.345Z,55.20
2019-03-15T00:26:20.872Z,55.80
2019-03-15T00:28:49.425Z,56.10
2019-03-15T00:31:17.954Z,56.00
2019-03-15T00:33:46.480Z,56.50
2019-03-15T00:36:15.024Z,56.80
2019-03-15T00:38:43.561Z,57.50
2019-03-15T00:41:12.109Z,59.40
2019-03-15T00:43:40.643Z,60.20
2019-03-15T00:46:09.260Z,60.10
2019-03-15T00:48:37.848Z,63.70
2019-03-15T00:51:06.396Z,67.20
2019-03-15T00:53:34.924Z,71.40
2019-03-15T00:56:03.452Z,74.20
2019-03-15T00:58:32.096Z,76.70
2019-03-15T01:01:00.632Z,77.80
2019-03-15T01:03:29.179Z,78.70
2019-03-15T01:05:57.705Z,79.30
2019-03-15T01:08:26.257Z,80.00
2019-03-15T01:10:54.784Z,81.30
2019-03-15T01:13:23.335Z,81.70
2019-03-15T01:15:51.876Z,83.40
2019-03-15T01:18:20.425Z,84.70
2019-03-15T01:20:48.959Z,85.50
2019-03-15T01:23:17.489Z,86.30
2019-03-15T01:25:46.040Z,87.20
2019-03-15T01:28:14.568Z,87.10
2019-03-15T01:30:43.115Z,87.50
2019-03-15T01:33:11.650Z,87.80
2019-03-15T01:35:40.195Z,88.80
2019-03-15T01:38:08.720Z,89.10
2019-03-15T01:40:37.271Z,89.70
2019-03-15T01:43:05.807Z,89.50
2019-03-15T01:45:34.350Z,89.10
2019-03-15T01:48:02.884Z,89.60
2019-03-15T01:50:31.412Z,90.20
2019-03-15T01:52:59.955Z,90.30
2019-03-15T01:55:28.488Z,89.60
2019-03-15T01:57:57.031Z,89.30
2019-03-15T02:00:25.563Z,89.10
2019-03-15T02:02:54.184Z,88.90
2019-03-15T02:05:22.722Z,88.10
2019-03-15T02:07:51.264Z,87.30
2019-03-15T02:10:22.077Z,86.70
2019-03-15T02:12:49.897Z,86.90
2019-03-15T02:15:18.597Z,86.80
2019-03-15T02:17:47.145Z,86.30
2019-03-15T02:20:15.701Z,85.50
2019-03-15T02:22:44.242Z,85.60
2019-03-15T02:25:12.780Z,85.40
2019-03-15T02:27:41.304Z,83.30
2019-03-15T02:30:10.995Z,83.70
2019-03-15T02:32:39.823Z,84.50
2019-03-15T02:35:08.453Z,84.10
2019-03-15T02:37:37.020Z,83.80
2019-03-15T02:40:06.395Z,82.70
2019-03-15T02:42:34.950Z,81.60
2019-03-15T02:45:03.500Z,81.30
2019-03-15T02:47:32.042Z,81.30
2019-03-15T02:50:01.447Z,82.10
2019-03-15T02:52:30.101Z,81.70
2019-03-15T02:54:58.634Z,82.20
2019-03-15T02:57:27.177Z,81.70
2019-03-15T02:59:55.704Z,81.80
2019-03-15T03:02:24.284Z,81.80
2019-03-15T03:04:52.813Z,82.40
2019-03-15T03:07:21.355Z,82.70
2019-03-15T03:09:49.914Z,83.00
2019-03-15T03:12:18.421Z,83.00
2019-03-15T03:14:46.980Z,81.80
2019-03-15T03:17:15.510Z,81.80
2019-03-15T03:19:44.068Z,82.90
2019-03-15T03:22:12.585Z,83.70
2019-03-15T03:24:41.139Z,85.60
2019-03-15T03:27:09.661Z,85.00
2019-03-15T03:29:38.200Z,87.70
2019-03-15T03:32:06.757Z,88.90
2019-03-15T03:34:35.287Z,89.70
2019-03-15T03:37:03.837Z,90.20
2019-03-15T03:39:32.609Z,90.40
2019-03-15T03:42:02.017Z,91.20
2019-03-15T03:44:30.541Z,91.40
2019-03-15T03:46:59.116Z,91.70
2019-03-15T03:49:27.680Z,92.00
2019-03-15T03:51:56.172Z,92.20
2019-03-15T03:54:24.731Z,92.40
2019-03-15T03:56:53.248Z,92.50
2019-03-15T03:59:21.799Z,92.90
2019-03-15T04:01:50.349Z,93.20
2019-03-15T04:04:18.894Z,93.70
2019-03-15T04:06:47.419Z,93.90
2019-03-15T04:09:15.969Z,94.00
2019-03-15T04:11:54.727Z,93.50
2019-03-15T04:14:14.622Z,93.30
2019-03-15T04:16:43.153Z,93.20
2019-03-15T04:19:11.728Z,93.00
2019-03-15T04:21:40.260Z,92.90
2019-03-15T04:24:08.789Z,92.70
2019-03-15T04:26:37.335Z,92.40
2019-03-15T04:29:05.860Z,92.50
2019-03-15T04:31:34.497Z,92.80
2019-03-15T04:34:03.045Z,92.90
2019-03-15T04:36:31.589Z,92.90
2019-03-15T04:39:00.124Z,93.50
2019-03-15T04:41:28.668Z,93.30
2019-03-15T04:43:57.192Z,93.30
2019-03-15T04:46:25.799Z,93.80
2019-03-15T04:48:54.319Z,93.70
2019-03-15T04:51:22.904Z,94.00
2019-03-15T04:53:51.436Z,93.80
2019-03-15T04:56:19.958Z,93.60
2019-03-15T04:58:48.511Z,93.40
2019-03-15T05:01:17.037Z,93.20
2019-03-15T05:03:45.586Z,93.00
2019-03-15T05:06:14.112Z,93.00
2019-03-15T05:08:42.659Z,93.00
2019-03-15T05:11:11.198Z,92.70
2019-03-15T05:13:39.744Z,92.70
2019-03-15T05:16:08.281Z,92.80
2019-03-15T05:18:36.828Z,93.10
2019-03-15T05:21:05.351Z,93.10
2019-03-15T05:23:33.936Z,93.20
2019-03-15T05:26:02.460Z,93.20
2019-03-15T05:28:30.986Z,93.50
2019-03-15T05:30:59.527Z,93.40
2019-03-15T05:33:28.056Z,93.30
2019-03-15T05:35:56.610Z,93.40
2019-03-15T05:38:25.132Z,93.10
2019-03-15T05:40:53.749Z,92.90
2019-03-15T05:43:22.276Z,92.90
2019-03-15T05:45:50.844Z,92.80
2019-03-15T05:48:19.352Z,92.90
2019-03-15T05:50:47.896Z,92.60
2019-03-15T05:53:16.432Z,92.70
2019-03-15T05:55:45.001Z,92.90
2019-03-15T05:58:13.533Z,92.80
2019-03-15T06:00:42.059Z,92.60
2019-03-15T06:03:12.409Z,92.60
2019-03-15T06:05:40.740Z,92.30
2019-03-15T06:08:09.279Z,92.00
2019-03-15T06:10:37.804Z,92.00
2019-03-15T06:13:06.364Z,92.00
2019-03-15T06:15:34.894Z,91.80
2019-03-15T06:18:06.522Z,91.50
2019-03-15T06:20:33.557Z,91.10
2019-03-15T06:23:02.101Z,90.90
2019-03-15T06:25:30.640Z,90.90
2019-03-15T06:27:59.261Z,90.80
2019-03-15T06:30:27.810Z,90.60
2019-03-15T06:32:56.333Z,90.10
2019-03-15T06:35:24.880Z,89.90
2019-03-15T06:37:53.408Z,90.20
2019-03-15T06:40:21.959Z,89.80
2019-03-15T06:42:50.488Z,88.70
2019-03-15T06:45:19.036Z,88.80
2019-03-15T06:47:47.571Z,89.10
2019-03-15T06:50:16.111Z,88.70
2019-03-15T06:52:44.655Z,89.00
2019-03-15T06:55:13.197Z,88.50
2019-03-15T06:57:41.737Z,89.00
2019-03-15T07:00:14.570Z,89.40
2019-03-15T07:02:43.116Z,88.70
2019-03-15T07:05:12.535Z,87.70
2019-03-15T07:07:41.173Z,87.20
2019-03-15T07:10:10.944Z,87.10
2019-03-15T07:12:40.416Z,86.30
2019-03-15T07:15:10.873Z,86.40
2019-03-15T07:17:39.571Z,86.30
2019-03-15T07:20:13.006Z,84.80
2019-03-15T07:22:41.534Z,83.90
2019-03-15T07:25:10.376Z,82.80
2019-03-15T07:27:42.211Z,82.10
2019-03-15T07:30:13.317Z,82.40
2019-03-15T07:32:41.856Z,81.80
2019-03-15T07:35:10.492Z,80.00
2019-03-15T07:37:39.020Z,78.60
2019-03-15T07:40:10.564Z,76.70
2019-03-15T07:42:39.095Z,78.50
2019-03-15T07:45:10.242Z,80.00
2019-03-15T07:47:38.820Z,79.10
2019-03-15T07:50:14.209Z,79.00
2019-03-15T07:52:42.201Z,78.10
2019-03-15T07:55:11.069Z,77.80
2019-03-15T07:57:39.616Z,78.30
2019-03-15T08:00:11.053Z,78.30
2019-03-15T08:02:39.623Z,78.90
2019-03-15T08:05:08.996Z,78.50
2019-03-15T08:07:44.340Z,77.80
2019-03-15T08:10:12.380Z,78.60
2019-03-15T08:12:41.115Z,77.80
2019-03-15T08:15:11.179Z,77.60
2019-03-15T08:17:39.728Z,82.60
2019-03-15T08:20:10.716Z,81.00
2019-03-15T08:22:39.264Z,78.60
2019-03-15T08:25:09.461Z,79.70
2019-03-15T08:27:37.988Z,79.90
2019-03-15T08:30:12.384Z,81.00
2019-03-15T08:32:43.360Z,80.10
2019-03-15T08:35:11.726Z,78.60
2019-03-15T08:37:40.270Z,77.60
2019-03-15T08:40:15.284Z,77.70
2019-03-15T08:42:43.823Z,76.50
2019-03-15T08:45:16.811Z,75.70
2019-03-15T08:47:45.356Z,74.00
2019-03-15T08:50:15.809Z,73.20
2019-03-15T08:52:44.405Z,72.80
2019-03-15T08:55:15.838Z,72.30
2019-03-15T08:57:44.408Z,71.80
2019-03-15T09:00:14.491Z,70.80
2019-03-15T09:02:44.242Z,69.20
2019-03-15T09:05:16.232Z,69.50
2019-03-15T09:07:44.200Z,69.10
2019-03-15T09:10:23.331Z,68.10
2019-03-15T09:12:49.956Z,67.90
2019-03-15T09:15:18.505Z,67.80
2019-03-15T09:17:47.040Z,66.40
2019-03-15T09:20:17.240Z,65.60
2019-03-15T09:22:45.942Z,64.90
2019-03-15T09:25:19.734Z,64.70
2019-03-15T09:27:46.056Z,63.50
2019-03-15T09:30:23.549Z,63.70
2019-03-15T09:32:48.244Z,62.20
2019-03-15T09:35:16.808Z,62.40
2019-03-15T09:37:47.386Z,60.60
2019-03-15T09:40:17.288Z,60.00
2019-03-15T09:42:45.816Z,60.90
2019-03-15T09:45:15.710Z,61.30
2019-03-15T09:47:44.327Z,61.60
2019-03-15T09:50:21.930Z,61.00
2019-03-15T09:52:44.152Z,60.50
2019-03-15T09:55:13.528Z,59.40
2019-03-15T09:57:42.080Z,59.20
2019-03-15T10:00:18.365Z,59.40
2019-03-15T10:02:46.952Z,58.20
2019-03-15T10:05:15.488Z,58.10
2019-03-15T10:07:44.271Z,57.00
2019-03-15T10:10:18.367Z,55.30
2019-03-15T10:12:46.331Z,54.90
2019-03-15T10:15:15.688Z,55.40
2019-03-15T10:17:44.224Z,55.30
2019-03-15T10:20:13.507Z,55.60
2019-03-15T10:22:42.047Z,55.70
2019-03-15T10:25:14.492Z,55.20
2019-03-15T10:27:43.015Z,54.10
2019-03-15T10:30:13.992Z,53.30
2019-03-15T10:32:42.529Z,53.60
2019-03-15T10:35:11.068Z,54.10
2019-03-15T10:37:39.617Z,52.90
2019-03-15T10:40:11.351Z,52.70
2019-03-15T10:42:39.904Z,51.70
2019-03-15T10:45:09.880Z,51.00
2019-03-15T10:47:38.442Z,51.00
2019-03-15T10:50:10.293Z,50.10
2019-03-15T10:52:38.844Z,49.60
2019-03-15T10:55:08.520Z,50.10
2019-03-15T10:57:37.076Z,50.00
2019-03-15T11:00:11.439Z,48.50
2019-03-15T11:02:40.019Z,48.80
2019-03-15T11:05:10.149Z,48.20
2019-03-15T11:07:38.708Z,49.40
2019-03-15T11:10:09.903Z,51.00
2019-03-15T11:12:38.467Z,50.10
2019-03-15T11:15:09.598Z,49.40
2019-03-15T11:17:38.173Z,49.20
2019-03-15T11:20:08.919Z,47.60
2019-03-15T11:22:37.479Z,46.70
2019-03-15T11:25:08.015Z,45.20
2019-03-15T11:27:36.586Z,45.80
2019-03-15T11:30:10.888Z,45.20
2019-03-15T11:32:39.462Z,46.00
2019-03-15T11:35:09.023Z,45.70
2019-03-15T11:37:37.603Z,45.20
2019-03-15T11:40:19.134Z,45.10
2019-03-15T11:42:49.855Z,44.40
2019-03-15T11:45:18.543Z,43.70
2019-03-15T11:48:02.516Z,44.00
2019-03-15T11:50:18.525Z,43.20
2019-03-15T11:52:47.114Z,42.70
2019-03-15T11:55:15.687Z,42.80
2019-03-15T11:57:44.290Z,42.60
2019-03-15T12:00:17.847Z,43.20
2019-03-15T12:02:46.492Z,42.60
2019-03-15T12:05:15.155Z,42.40
2019-03-15T12:07:43.782Z,42.90
2019-03-15T12:10:16.445Z,42.30
2019-03-15T12:12:45.015Z,42.40
2019-03-15T12:15:14.788Z,42.60
2019-03-15T12:17:43.433Z,44.20
2019-03-15T12:20:12.680Z,43.80
2019-03-15T12:22:41.251Z,43.00
2019-03-15T12:25:10.455Z,42.40
2019-03-15T12:27:39.058Z,42.60
2019-03-15T12:30:14.877Z,43.10
2019-03-15T12:32:43.465Z,45.30
2019-03-15T12:35:13.062Z,45.10
2019-03-15T12:37:41.660Z,43.50
2019-03-15T12:40:14.153Z,42.40
2019-03-15T12:42:42.756Z,42.20
2019-03-15T12:45:13.421Z,40.70
2019-03-15T12:47:42.010Z,41.60
2019-03-15T12:50:12.944Z,41.10
2019-03-15T12:52:47.755Z,40.80
2019-03-15T12:55:12.759Z,40.80
2019-03-15T12:57:41.342Z,40.70
2019-03-15T13:00:22.221Z,41.30
2019-03-15T13:02:50.798Z,40.20
2019-03-15T13:05:19.375Z,39.30
2019-03-15T13:07:47.970Z,39.30
2019-03-15T13:10:20.606Z,40.00
2019-03-15T13:12:49.262Z,39.40
2019-03-15T13:15:17.844Z,39.00
2019-03-15T13:17:46.405Z,39.30
2019-03-15T13:20:18.072Z,40.90
2019-03-15T13:22:46.659Z,40.40
2019-03-15T13:25:15.221Z,39.50
2019-03-15T13:27:43.811Z,37.10
2019-03-15T13:30:16.340Z,34.00
2019-03-15T13:32:44.918Z,33.80
2019-03-15T13:35:13.491Z,34.30
2019-03-15T13:37:43.179Z,34.60
2019-03-15T13:40:16.950Z,32.40
2019-03-15T13:42:45.538Z,28.90
2019-03-15T13:45:14.948Z,27.10
2019-03-15T13:47:43.503Z,26.50
2019-03-15T13:50:15.386Z,25.30
2019-03-15T13:52:44.003Z,24.70
2019-03-15T13:55:12.598Z,24.30
2019-03-15T13:57:41.160Z,23.40
2019-03-15T14:00:18.046Z,23.50
2019-03-15T14:02:46.621Z,23.40
2019-03-15T14:05:16.838Z,23.30
2019-03-15T14:07:45.418Z,22.50
2019-03-15T14:10:15.103Z,22.00
2019-03-15T14:12:43.689Z,22.50
2019-03-15T14:15:17.377Z,21.90
2019-03-15T14:17:46.030Z,21.30
2019-03-15T14:20:14.596Z,20.60
2019-03-15T14:22:43.184Z,20.90
2019-03-15T14:25:23.402Z,21.60
2019-03-15T14:27:52.083Z,20.40
2019-03-15T14:30:20.639Z,19.70
2019-03-15T14:32:49.332Z,19.30
2019-03-15T14:35:17.923Z,18.70
2019-03-15T14:37:46.710Z,19.10
2019-03-15T14:40:15.266Z,19.00
2019-03-15T14:42:44.045Z,19.00
2019-03-15T14:45:16.008Z,18.90
2019-03-15T14:47:43.890Z,20.40
2019-03-15T14:50:17.112Z,21.20
2019-03-15T14:52:45.664Z,22.10
2019-03-15T14:55:15.607Z,21.40
2019-03-15T14:57:51.831Z,20.10
2019-03-15T15:00:16.644Z,19.70
2019-03-15T15:02:45.214Z,19.90
2019-03-15T15:05:13.801Z,20.00
2019-03-15T15:07:42.375Z,19.90
2019-03-15T15:10:16.041Z,20.60
2019-03-15T15:12:44.608Z,20.60
2019-03-15T15:15:17.727Z,20.70
2019-03-15T15:17:46.390Z,20.60
2019-03-15T15:20:14.961Z,20.60
2019-03-15T15:22:43.552Z,20.50
2019-03-15T15:25:13.263Z,20.50
2019-03-15T15:27:41.930Z,21.40
2019-03-15T15:30:15.717Z,22.10
2019-03-15T15:32:44.297Z,21.20
2019-03-15T15:35:13.539Z,21.60
2019-03-15T15:37:42.160Z,22.10
2019-03-15T15:40:13.991Z,22.70
2019-03-15T15:42:42.618Z,23.30
2019-03-15T15:45:11.964Z,22.70
2019-03-15T15:47:40.520Z,22.10
2019-03-15T15:50:13.046Z,21.80
2019-03-15T15:52:41.625Z,22.00
2019-03-15T15:55:14.889Z,23.60
2019-03-15T15:57:43.465Z,23.00
2019-03-15T16:00:16.387Z,22.50
2019-03-15T16:02:44.964Z,23.60
2019-03-15T16:05:13.550Z,25.30
2019-03-15T16:07:42.116Z,24.60
2019-03-15T16:10:12.447Z,24.60
2019-03-15T16:12:41.117Z,23.60
2019-03-15T16:15:11.828Z,23.90
2019-03-15T16:17:40.424Z,24.80
2019-03-15T16:20:10.330Z,25.50
2019-03-15T16:22:38.941Z,26.00
2019-03-15T16:25:09.048Z,26.80
2019-03-15T16:27:37.646Z,27.60
2019-03-15T16:30:12.080Z,28.80
2019-03-15T16:32:40.701Z,30.00
2019-03-15T16:35:11.330Z,31.70
2019-03-15T16:37:39.883Z,32.80
2019-03-15T16:40:10.402Z,34.20
2019-03-15T16:42:39.013Z,35.60
2019-03-15T16:45:25.659Z,36.10
2019-03-15T16:47:54.299Z,37.00
2019-03-15T16:50:24.705Z,38.20
2019-03-15T16:52:53.246Z,38.70
2019-03-15T16:55:21.894Z,38.70
2019-03-15T16:57:50.539Z,39.30
2019-03-15T17:00:19.107Z,40.10
2019-03-15T17:02:47.707Z,40.30
2019-03-15T17:05:16.283Z,40.60
2019-03-15T17:07:44.944Z,41.30
2019-03-15T17:10:15.925Z,41.60
2019-03-15T17:12:44.683Z,42.10
2019-03-15T17:15:21.808Z,43.90
2019-03-15T17:17:50.411Z,44.80
2019-03-15T17:20:18.995Z,46.20
2019-03-15T17:22:47.597Z,47.30
2019-03-15T17:25:16.247Z,48.30
2019-03-15T17:27:44.837Z,49.20
2019-03-15T17:30:14.452Z,49.70
2019-03-15T17:32:43.111Z,50.00
2019-03-15T17:35:13.265Z,50.40
2019-03-15T17:37:41.881Z,50.90
2019-03-15T17:40:15.208Z,51.30
2019-03-15T17:42:43.763Z,51.30
2019-03-15T17:45:12.351Z,51.50
2019-03-15T17:47:40.937Z,51.60
2019-03-15T17:50:20.374Z,52.00
2019-03-15T17:52:48.944Z,52.90
2019-03-15T17:55:17.712Z,53.40
2019-03-15T17:57:46.365Z,53.90
2019-03-15T18:00:28.194Z,53.90
2019-03-15T18:02:56.762Z,54.30
2019-03-15T18:05:25.359Z,55.20
2019-03-15T18:07:53.931Z,56.20
2019-03-15T18:10:22.534Z,56.50
2019-03-15T18:12:51.090Z,57.50
2019-03-15T18:15:20.610Z,58.00
2019-03-15T18:17:49.188Z,58.60
2019-03-15T18:20:17.770Z,59.20
2019-03-15T18:22:46.339Z,59.40
2019-03-15T18:25:14.911Z,59.60
2019-03-15T18:27:43.980Z,59.80
2019-03-15T18:30:14.031Z,60.60
2019-03-15T18:32:42.628Z,61.10
2019-03-15T18:35:11.458Z,61.00
2019-03-15T18:37:40.130Z,61.10
2019-03-15T18:40:11.257Z,61.00
2019-03-15T18:42:39.874Z,62.00
2019-03-15T18:45:10.883Z,63.00
2019-03-15T18:47:40.552Z,63.20
2019-03-15T18:50:12.386Z,63.20
2019-03-15T18:52:40.980Z,63.10
2019-03-15T18:55:09.943Z,63.10
2019-03-15T18:57:38.522Z,63.60
2019-03-15T19:00:10.404Z,63.90
2019-03-15T19:02:38.953Z,64.00
2019-03-15T19:05:09.264Z,65.30
2019-03-15T19:07:38.063Z,65.60
2019-03-15T19:10:11.385Z,66.30
2019-03-15T19:12:39.981Z,65.80
2019-03-15T19:15:17.609Z,66.00
2019-03-15T19:17:46.192Z,65.40
2019-03-15T19:20:15.699Z,65.50
2019-03-15T19:22:44.409Z,65.50
2019-03-15T19:25:14.023Z,65.70
2019-03-15T19:27:42.588Z,66.00
2019-03-15T19:30:18.881Z,66.50
2019-03-15T19:32:47.448Z,66.60
2019-03-15T19:35:16.035Z,66.50
2019-03-15T19:37:44.602Z,66.60
2019-03-15T19:40:18.092Z,66.60
2019-03-15T19:42:46.661Z,66.40
2019-03-15T19:45:17.775Z,66.40
2019-03-15T19:47:46.324Z,66.50
2019-03-15T19:50:21.063Z,66.50
2019-03-15T19:52:49.619Z,66.90
2019-03-15T19:55:18.254Z,66.30
2019-03-15T19:57:46.831Z,67.00
2019-03-15T20:00:23.211Z,67.20
2019-03-15T20:02:51.779Z,67.80
2019-03-15T20:05:20.366Z,67.60
2019-03-15T20:07:49.151Z,68.00
2019-03-15T20:10:17.873Z,68.20
2019-03-15T20:12:46.471Z,68.30
2019-03-15T20:15:17.035Z,68.40
2019-03-15T20:17:45.637Z,68.40
2019-03-15T20:20:18.199Z,68.20
2019-03-15T20:22:46.773Z,68.80
2019-03-15T20:25:16.183Z,68.90
2019-03-15T20:27:44.756Z,69.00
2019-03-15T20:30:25.575Z,68.80
2019-03-15T20:32:50.874Z,69.20
2019-03-15T20:35:19.452Z,68.90
2019-03-15T20:37:48.135Z,68.50
2019-03-15T20:40:16.710Z,68.90
2019-03-15T20:42:45.288Z,68.90
2019-03-15T20:45:18.418Z,69.40
2019-03-15T20:47:47.002Z,69.70
2019-03-15T20:50:15.651Z,70.00
2019-03-15T20:52:44.246Z,69.70
2019-03-15T20:55:12.903Z,69.70
2019-03-15T20:57:41.481Z,70.50
2019-03-15T21:00:16.243Z,70.70
2019-03-15T21:02:44.851Z,70.70
2019-03-15T21:05:13.454Z,71.40
2019-03-15T21:07:43.565Z,71.00
2019-03-15T21:10:17.053Z,71.40
2019-03-15T21:12:45.667Z,72.50
2019-03-15T21:15:16.065Z,72.50
2019-03-15T21:17:44.646Z,72.30
2019-03-15T21:20:18.387Z,72.70
2019-03-15T21:22:46.963Z,73.20
2019-03-15T21:25:15.550Z,73.60
2019-03-15T21:27:53.784Z,74.00
2019-03-15T21:30:19.713Z,73.80
2019-03-15T21:32:48.415Z,74.30
2019-03-15T21:35:16.972Z,74.60
2019-03-15T21:37:45.539Z,75.40
2019-03-15T21:40:15.501Z,74.50
2019-03-15T21:42:44.071Z,74.60
2019-03-15T21:45:12.838Z,74.90
2019-03-15T21:47:41.396Z,75.40
2019-03-15T21:50:15.559Z,76.00
2019-03-15T21:52:44.145Z,76.40
2019-03-15T21:55:12.727Z,76.50
2019-03-15T21:57:41.322Z,76.90
2019-03-15T22:00:14.644Z,76.40
2019-03-15T22:02:43.265Z,76.20
2019-03-15T22:05:11.830Z,76.40
2019-03-15T22:07:40.430Z,76.50
2019-03-15T22:10:17.106Z,77.00
2019-03-15T22:12:45.720Z,77.60
2019-03-15T22:15:14.303Z,77.30
2019-03-15T22:17:43.012Z,77.00
2019-03-15T22:20:15.198Z,77.50
2019-03-15T22:22:43.775Z,77.20
2019-03-15T22:25:12.405Z,76.50
2019-03-15T22:27:40.961Z,76.60
2019-03-15T22:30:11.269Z,76.70
2019-03-15T22:32:39.843Z,76.90
2019-03-15T22:35:08.421Z,77.20
2019-03-15T22:37:37.002Z,77.20
2019-03-15T22:40:10.655Z,77.20
2019-03-15T22:42:39.318Z,76.50
2019-03-15T22:45:10.580Z,77.10
2019-03-15T22:47:39.194Z,78.40
2019-03-15T22:50:11.473Z,78.30
2019-03-15T22:52:40.049Z,78.40
2019-03-15T22:55:09.776Z,78.00
2019-03-15T22:57:38.341Z,78.70
2019-03-15T23:00:16.238Z,77.50
2019-03-15T23:02:44.839Z,77.90
2019-03-15T23:05:13.622Z,79.20
2019-03-15T23:07:42.199Z,79.30
2019-03-15T23:10:11.214Z,79.40
2019-03-15T23:12:39.787Z,79.70
2019-03-15T23:15:09.970Z,80.20
2019-03-15T23:17:38.592Z,79.10
2019-03-15T23:20:08.866Z,79.10
2019-03-15T23:22:37.468Z,77.90
2019-03-15T23:25:06.777Z,78.30
2019-03-15T23:27:35.362Z,78.30
2019-03-15T23:30:06.202Z,78.40
2019-03-15T23:32:34.807Z,78.70
2019-03-15T23:35:03.666Z,78.90
2019-03-15T23:37:32.238Z,78.90
2019-03-15T23:40:00.832Z,79.40
2019-03-15T23:42:29.407Z,79.90
2019-03-15T23:44:57.986Z,79.90
2019-03-15T23:47:26.559Z,80.10
2019-03-15T23:49:55.163Z,80.00
2019-03-15T23:52:23.726Z,80.30
2019-03-15T23:54:52.459Z,80.40
2019-03-15T23:57:21.048Z,80.20
2019-03-15T23:59:49.619Z,79.80
